< < Back
Terminal Aerodrome Forecast


Current Version              Previous Versions:   1  2  3  4  5  6  7  8  9  

Terminal Aerodrome Forecast

641
FTUS44 KMOB 012300
TAFPNS
TAF
KPNS 012323Z 0200/0224 18006KT P6SM BKN200
     FM021500 12005KT P6SM SCT050 BKN100=

Latest METAR

240
SAUS70 KWBC 020400 RRD
MTRPNS
METAR KPNS 020353Z 10003KT 10SM CLR 23/22 A2999 RMK AO2 SLP155
T02330217


USA.gov is the U.S. government's official web portal to all federal, state and local government web resources and services.